Time;durP1;ratioP1;P1;durP2;ratioP2;P2;SDS_P1;SDS_P2;PMS_P1;PMS_P2;Temp;Humidity;BMP_temperature;BMP_pressure;BME280_temperature;BME280_humidity;BME280_pressure;Samples;Min_cycle;Max_cycle;Signal;HPM_P1;HPM_P2
2021/11/01 00:00:36;;;;;;;83.35;29.20;;;;;;;3.87;85.82;100371.19;4963673;28;20639;-78
2021/11/01 00:03:03;;;;;;;86.32;30.92;;;;;;;3.84;85.79;100373.09;4939591;28;20043;-77
2021/11/01 00:05:29;;;;;;;87.60;30.75;;;;;;;3.82;85.93;100367.06;4973369;28;20060;-78
2021/11/01 00:07:55;;;;;;;83.88;29.85;;;;;;;3.79;85.89;100364.53;4972206;28;20134;-77
2021/11/01 00:10:21;;;;;;;86.70;31.27;;;;;;;3.75;85.92;100369.06;4972647;28;20058;-82
2021/11/01 00:12:46;;;;;;;86.57;31.23;;;;;;;3.70;85.78;100361.38;4973163;28;20081;-79
2021/11/01 00:15:14;;;;;;;86.82;30.60;;;;;;;3.64;85.66;100366.84;4974288;28;20066;-80
2021/11/01 00:17:40;;;;;;;85.77;30.57;;;;;;;3.64;85.92;100364.22;4974165;28;20046;-79
2021/11/01 00:20:06;;;;;;;91.60;32.40;;;;;;;3.60;86.02;100372.25;4956679;28;20043;-78
2021/11/01 00:22:33;;;;;;;91.43;31.50;;;;;;;3.57;86.33;100375.81;4974582;28;20063;-79
2021/11/01 00:24:59;;;;;;;92.60;33.70;;;;;;;3.52;85.93;100373.38;4955627;28;20580;-78
2021/11/01 00:27:25;;;;;;;91.53;32.63;;;;;;;3.48;86.36;100370.94;4955679;28;20043;-79
2021/11/01 00:29:51;;;;;;;92.85;31.40;;;;;;;3.45;86.23;100371.91;4973750;28;20097;-78
2021/11/01 00:32:17;;;;;;;94.57;33.08;;;;;;;3.44;86.35;100379.78;4931299;29;20043;-81
2021/11/01 00:34:42;;;;;;;86.32;31.65;;;;;;;3.44;86.40;100379.78;4968455;28;20559;-77
2021/11/01 00:37:09;;;;;;;105.53;33.53;;;;;;;3.42;86.59;100376.41;4955544;28;20042;-80
2021/11/01 00:39:35;;;;;;;89.50;32.78;;;;;;;3.42;86.55;100376.41;4955641;28;20050;-82
2021/11/01 00:42:03;;;;;;;87.13;30.77;;;;;;;3.42;86.65;100379.00;4972975;28;20046;-84
2021/11/01 00:44:29;;;;;;;89.10;30.98;;;;;;;3.43;87.02;100383.31;4938813;28;20050;-78
2021/11/01 00:46:58;;;;;;;82.32;29.50;;;;;;;3.40;86.76;100374.69;4955513;28;20057;-79
2021/11/01 00:49:25;;;;;;;85.35;29.88;;;;;;;3.40;87.22;100368.59;4972673;28;20074;-80
2021/11/01 00:51:53;;;;;;;94.10;31.25;;;;;;;3.40;86.95;100374.69;4971865;28;20047;-77
2021/11/01 00:54:19;;;;;;;;;;;;;;;3.42;87.02;100374.63;4972269;28;20061;-77
2021/11/01 00:56:44;;;;;;;88.15;30.98;;;;;;;3.45;87.22;100376.28;4972422;28;20383;-79
2021/11/01 00:59:10;;;;;;;83.55;30.73;;;;;;;3.42;87.11;100376.41;4972143;28;20051;-79
2021/11/01 01:01:39;;;;;;;88.47;31.70;;;;;;;3.44;86.86;100374.56;4971748;28;20038;-78
2021/11/01 01:04:05;;;;;;;84.22;31.08;;;;;;;3.45;87.11;100376.28;4971326;28;20050;-77
2021/11/01 01:06:30;;;;;;;90.93;31.83;;;;;;;3.40;87.03;100368.59;4972186;28;20543;-80
2021/11/01 01:08:56;;;;;;;86.07;30.08;;;;;;;3.38;87.35;100370.41;4955144;28;20137;-80
2021/11/01 01:11:22;;;;;;;90.10;31.23;;;;;;;3.41;87.40;100372.91;4941760;28;20046;-77
2021/11/01 01:13:51;;;;;;;97.57;30.98;;;;;;;3.39;87.23;100372.97;4957753;28;20043;-77
2021/11/01 01:18:44;;;;;;;105.57;32.60;;;;;;;3.36;87.39;100367.84;4957662;28;20097;-78
2021/11/01 01:23:55;;;;;;;89.13;30.30;;;;;;;3.33;87.38;100362.72;4936450;29;20497;-78
2021/11/01 01:26:21;;;;;;;87.70;29.55;;;;;;;3.35;87.41;100358.31;4936617;29;20043;-79
2021/11/01 01:28:47;;;;;;;90.07;31.38;;;;;;;3.32;87.05;100355.78;4956097;28;20038;-77
2021/11/01 01:31:13;;;;;;;89.40;29.48;;;;;;;3.31;87.07;100359.31;4973528;28;20066;-78
2021/11/01 01:33:39;;;;;;;90.90;30.38;;;;;;;3.29;87.54;100361.16;4922292;29;20054;-80
2021/11/01 01:36:05;;;;;;;85.13;31.85;;;;;;;3.28;87.14;100354.22;4938007;29;20050;-77
2021/11/01 01:38:31;;;;;;;88.63;29.98;;;;;;;3.27;87.50;100351.66;4962558;28;20070;-77
2021/11/01 01:40:57;;;;;;;89.28;30.27;;;;;;;3.23;87.63;100356.13;4974648;28;20131;-77
2021/11/01 01:43:23;;;;;;;98.55;31.92;;;;;;;3.25;87.54;100364.75;4974602;28;20147;-77
2021/11/01 01:45:50;;;;;;;81.93;31.38;;;;;;;3.23;87.41;100361.38;4974284;28;20070;-79
2021/11/01 01:48:18;;;;;;;93.45;32.00;;;;;;;3.23;87.65;100356.13;4956990;28;20043;-79
2021/11/01 01:50:45;;;;;;;85.47;29.75;;;;;;;3.23;87.46;100361.38;4957027;28;20109;-79
2021/11/01 01:53:11;;;;;;;85.25;31.55;;;;;;;3.21;87.70;100363.16;4940223;28;20046;-77
2021/11/01 01:55:37;;;;;;;88.63;30.27;;;;;;;3.22;87.39;100362.28;4973957;28;20051;-78
2021/11/01 01:58:03;;;;;;;85.18;28.98;;;;;;;3.19;87.44;100360.63;4973663;28;20046;-77
2021/11/01 02:03:00;;;;;;;90.10;31.45;;;;;;;3.19;87.99;100354.53;4937381;28;20043;-79
2021/11/01 02:05:37;;;;;;;93.63;31.27;;;;;;;3.17;87.68;100356.34;4953578;29;20046;-78
2021/11/01 02:08:06;;;;;;;89.78;32.08;;;;;;;3.17;87.91;100359.81;4937593;29;20336;-79
2021/11/01 02:10:37;;;;;;;83.72;33.60;;;;;;;3.15;87.73;100361.63;4966859;28;20046;-79
2021/11/01 02:13:06;;;;;;;88.72;31.40;;;;;;;3.13;87.36;100357.34;4973842;28;20062;-76
2021/11/01 02:15:41;;;;;;;91.07;31.15;;;;;;;3.11;87.58;100361.78;4940349;28;20050;-77
2021/11/01 02:18:08;;;;;;;92.75;31.33;;;;;;;3.10;87.89;100367.94;4974410;28;20043;-77
2021/11/01 02:20:36;;;;;;;90.80;31.73;;;;;;;3.06;87.77;100360.19;4973735;28;20058;-78
2021/11/01 02:23:11;;;;;;;94.57;31.35;;;;;;;3.03;87.68;100360.31;4989253;28;20423;-76
2021/11/01 02:25:43;;;;;;;85.20;30.92;;;;;;;3.02;87.85;100365.59;4989213;28;20474;-77
2021/11/01 02:28:10;;;;;;;80.90;29.17;;;;;;;3.01;87.78;100374.31;4973272;28;20133;-79
2021/11/01 02:30:38;;;;;;;91.60;32.65;;;;;;;2.97;87.66;100376.19;4977744;28;20049;-76
2021/11/01 02:33:06;;;;;;;100.80;33.20;;;;;;;2.97;87.85;100368.34;4987755;28;20042;-76
2021/11/01 02:35:32;;;;;;;86.97;31.20;;;;;;;2.93;87.97;100371.97;4960709;28;20070;-77
2021/11/01 02:37:58;;;;;;;94.32;31.83;;;;;;;2.92;87.89;100372.88;4992475;28;20142;-76
2021/11/01 02:40:28;;;;;;;92.15;34.05;;;;;;;2.90;88.08;100366.84;4990072;28;20066;-76
2021/11/01 02:42:55;;;;;;;95.05;32.13;;;;;;;2.87;87.80;100364.34;4955864;28;20053;-76
2021/11/01 02:45:21;;;;;;;99.38;30.65;;;;;;;2.82;87.32;100366.28;4973969;28;20038;-76
2021/11/01 02:47:47;;;;;;;93.82;32.70;;;;;;;2.75;87.54;100370.81;4980953;28;20045;-76
2021/11/01 02:50:15;;;;;;;89.32;31.42;;;;;;;2.74;87.38;100362.16;4990507;28;20593;-76
2021/11/01 02:52:41;;;;;;;91.40;32.47;;;;;;;2.70;87.84;100372.75;4981962;28;20045;-78
2021/11/01 02:55:09;;;;;;;100.97;34.70;;;;;;;2.73;87.46;100362.22;4991688;28;20116;-79
2021/11/01 02:57:35;;;;;;;102.03;33.60;;;;;;;2.70;87.78;100373.59;4973087;28;20047;-78
2021/11/01 03:00:03;;;;;;;114.45;34.97;;;;;;;2.66;87.60;100371.16;4980713;28;20487;-78
2021/11/01 03:02:34;;;;;;;;;;;;;;;2.70;87.88;100372.75;4947401;28;20077;-80
2021/11/01 03:05:13;;;;;;;103.40;33.90;;;;;;;2.64;88.01;100370.34;4956849;28;19918;-78
2021/11/01 03:07:40;;;;;;;95.50;32.75;;;;;;;2.61;88.28;100360.84;4937062;28;20869;-79
2021/11/01 03:10:07;;;;;;;103.72;34.78;;;;;;;2.61;88.44;100363.47;4955236;28;20130;-79
2021/11/01 03:12:33;;;;;;;100.00;32.72;;;;;;;2.61;88.18;100368.69;4965605;28;20104;-76
2021/11/01 03:15:04;;;;;;;108.18;35.17;;;;;;;2.59;88.35;100371.34;4954567;28;20488;-78
2021/11/01 03:17:36;;;;;;;104.47;35.25;;;;;;;2.60;88.72;100372.19;4954208;28;20051;-79
2021/11/01 03:20:13;;;;;;;110.63;33.13;;;;;;;2.57;88.80;100372.31;4970710;28;20054;-79
2021/11/01 03:22:41;;;;;;;95.13;32.92;;;;;;;2.53;88.11;100371.53;4969364;28;20166;-79
2021/11/01 03:25:14;;;;;;;109.22;34.20;;;;;;;2.45;88.07;100378.75;4969950;28;20079;-80
2021/11/01 03:27:56;;;;;;;93.50;32.97;;;;;;;2.48;88.32;100381.28;4954198;28;20758;-79
2021/11/01 03:30:22;;;;;;;106.38;35.20;;;;;;;2.47;88.26;100368.25;4955108;28;20496;-79
2021/11/01 03:32:48;;;;;;;105.80;33.78;;;;;;;2.42;88.21;100369.28;4954860;28;20039;-81
2021/11/01 03:35:16;;;;;;;98.60;34.25;;;;;;;2.42;88.39;100363.22;4938780;28;20047;-80
2021/11/01 03:37:43;;;;;;;105.53;34.10;;;;;;;2.41;87.97;100364.09;4955476;28;20043;-80
2021/11/01 03:40:11;;;;;;;104.27;34.00;;;;;;;2.38;88.06;100367.69;4971849;28;20142;-81
2021/11/01 03:42:37;;;;;;;107.85;34.63;;;;;;;2.35;88.62;100365.16;4958760;28;20563;-81
2021/11/01 03:45:07;;;;;;;104.78;34.97;;;;;;;2.36;88.23;100364.25;4975183;28;20042;-80
2021/11/01 03:47:38;;;;;;;109.85;36.70;;;;;;;2.38;88.11;100366.81;4975631;28;20046;-79
2021/11/01 03:50:15;;;;;;;100.10;36.00;;;;;;;2.33;88.34;100361.75;4962180;28;20049;-80
2021/11/01 03:52:42;;;;;;;102.28;36.25;;;;;;;2.31;88.67;100349.66;4929766;28;20047;-80
2021/11/01 03:55:08;;;;;;;104.35;35.17;;;;;;;2.31;88.70;100358.31;4961226;28;20043;-78
2021/11/01 03:57:35;;;;;;;110.35;35.60;;;;;;;2.30;88.85;100348.78;4959746;28;20105;-82
2021/11/01 04:00:01;;;;;;;110.43;36.95;;;;;;;2.28;88.17;100347.13;4946329;28;20578;-80
2021/11/01 04:02:28;;;;;;;105.90;34.33;;;;;;;2.28;88.79;100350.59;4956722;28;20396;-80
2021/11/01 04:04:54;;;;;;;110.38;36.75;;;;;;;2.30;88.88;100354.00;4940106;28;20078;-79
2021/11/01 04:07:20;;;;;;;102.57;35.83;;;;;;;2.30;89.45;100353.16;4955070;28;20082;-81
2021/11/01 04:09:46;;;;;;;116.75;35.47;;;;;;;2.31;88.97;100352.25;4957775;28;20126;-79
2021/11/01 04:12:13;;;;;;;110.63;36.65;;;;;;;2.31;89.56;100350.50;4973565;28;20097;-82
2021/11/01 04:14:53;;;;;;;100.55;35.92;;;;;;;2.28;89.24;100350.59;4941677;28;20482;-84
2021/11/01 04:20:05;;;;;;;99.82;35.55;;;;;;;2.28;89.15;100350.59;4924316;28;20045;-81
2021/11/01 04:22:32;;;;;;;125.95;39.75;;;;;;;2.28;89.11;100342.78;4914144;29;20060;-81
2021/11/01 04:24:59;;;;;;;127.72;40.95;;;;;;;2.36;89.52;100343.38;4914013;29;20108;-84
2021/11/01 04:27:25;;;;;;;108.10;36.65;;;;;;;2.33;89.29;100337.38;4914500;29;20083;-85
2021/11/01 04:29:51;;;;;;;118.72;43.08;;;;;;;2.35;89.54;100351.25;4914056;29;20627;-81
2021/11/01 04:34:49;;;;;;;114.20;39.13;;;;;;;2.36;89.63;100345.13;4933173;29;20066;-83
2021/11/01 04:37:15;;;;;;;112.40;39.03;;;;;;;2.33;89.76;100337.38;4902433;29;20059;-83
2021/11/01 04:43:02;;;;;;;104.93;35.47;;;;;;;2.33;89.21;100342.59;4900104;29;20052;-81
2021/11/01 04:52:54;;;;;;;108.97;37.08;;;;;;;2.32;89.57;100346.13;4895990;29;20504;-78
2021/11/01 04:53:14;;;;;;;105.18;37.65;;;;;;;2.39;89.16;100334.59;4924699;28;20057;-79
2021/11/01 04:55:43;;;;;;;107.65;36.92;;;;;;;2.45;88.88;100341.38;4941189;28;20177;-81
2021/11/01 04:58:10;;;;;;;121.05;39.70;;;;;;;2.51;88.55;100347.22;4975190;28;20053;-82
2021/11/01 05:00:38;;;;;;;120.70;43.17;;;;;;;2.69;88.83;100345.78;4958281;28;20035;-80
2021/11/01 05:03:20;;;;;;;109.68;35.60;;;;;;;2.91;88.78;100350.28;4959600;28;20459;-83
2021/11/01 05:05:47;;;;;;;96.43;34.53;;;;;;;3.20;87.31;100354.50;4957935;28;20129;-77
2021/11/01 05:08:14;;;;;;;94.85;34.60;;;;;;;3.50;86.38;100348.19;4965872;28;20103;-82
2021/11/01 05:10:43;;;;;;;95.88;32.83;;;;;;;3.74;85.07;100356.91;4941895;29;20075;-81
2021/11/01 05:16:11;;;;;;;80.93;30.55;;;;;;;4.52;82.58;100354.72;4941115;29;20079;-86
2021/11/01 05:19:01;;;;;;;78.47;29.50;;;;;;;4.81;81.04;100356.13;4923701;29;20670;-82
2021/11/01 05:24:32;;;;;;;71.07;28.17;;;;;;;5.74;76.97;100353.84;4935267;29;20091;-88
2021/11/01 05:29:36;;;;;;;70.43;29.77;;;;;;;6.23;73.98;100348.97;4926836;29;20042;-77
2021/11/01 05:32:14;;;;;;;64.03;28.13;;;;;;;6.47;72.83;100351.31;4941930;29;20145;-79
2021/11/01 05:34:40;;;;;;;64.70;27.67;;;;;;;6.59;71.05;100355.97;4938930;29;20071;-82
2021/11/01 05:37:07;;;;;;;66.22;28.92;;;;;;;6.45;71.43;100358.41;4936937;29;20047;-80
2021/11/01 05:39:34;;;;;;;69.53;28.33;;;;;;;6.48;70.95;100366.16;4918907;29;20142;-80
2021/11/01 05:42:00;;;;;;;90.70;33.28;;;;;;;6.82;70.47;100361.84;4917257;29;20512;-79
2021/11/01 05:44:27;;;;;;;66.75;27.17;;;;;;;7.08;68.55;100359.69;4935350;29;20043;-80
2021/11/01 05:46:53;;;;;;;66.85;28.15;;;;;;;7.53;68.48;100363.44;4919527;29;20074;-79
2021/11/01 05:49:22;;;;;;;67.85;29.20;;;;;;;7.82;65.83;100361.03;4902736;29;20078;-81
2021/11/01 05:51:50;;;;;;;70.72;31.80;;;;;;;7.78;66.13;100362.13;4928750;28;20081;-81
2021/11/01 05:54:19;;;;;;;67.85;30.70;;;;;;;7.90;64.75;100365.88;4959561;28;20043;-82
2021/11/01 05:56:52;;;;;;;70.15;29.63;;;;;;;8.02;65.03;100372.25;4944673;28;20045;-81
2021/11/01 06:14:54;;;;;;;68.90;28.88;;;;;;;9.98;58.51;100367.78;4938451;28;20042;-86
2021/11/01 06:17:26;;;;;;;64.10;29.27;;;;;;;10.19;57.36;100368.22;4906229;29;20051;-84
2021/11/01 06:19:55;;;;;;;70.57;31.08;;;;;;;10.50;56.06;100361.84;4885619;29;20063;-83
2021/11/01 06:22:21;;;;;;;59.25;28.17;;;;;;;11.19;54.66;100367.88;4861933;29;20048;-84
2021/11/01 06:24:52;;;;;;;59.30;28.57;;;;;;;11.36;54.29;100370.19;4868133;29;20103;-84
2021/11/01 06:27:19;;;;;;;69.43;31.02;;;;;;;11.34;54.04;100366.84;4868473;29;20297;-86
2021/11/01 06:43:19;;;;;;;66.10;31.20;;;;;;;12.74;49.94;100379.81;4916372;29;20116;-86
2021/11/01 06:51:40;;;;;;;59.25;30.38;;;;;;;13.28;48.82;100388.16;4935590;29;20564;-78
2021/11/01 07:14:09;;;;;;;64.95;32.15;;;;;;;13.59;47.28;100380.50;4947862;28;20053;-86
2021/11/01 07:15:54;;;;;;;60.67;32.55;;;;;;;14.31;46.48;100365.06;4948456;28;20057;-82
2021/11/01 07:18:30;;;;;;;61.10;31.73;;;;;;;15.12;44.97;100367.28;4944382;28;20049;-84
2021/11/01 07:21:44;;;;;;;60.50;30.42;;;;;;;15.23;44.05;100375.19;4928020;28;20066;-83
2021/11/01 08:26:50;;;;;;;76.88;35.13;;;;;;;13.24;46.61;100392.03;4868173;29;20049;-85
2021/11/01 08:35:45;;;;;;;60.97;29.63;;;;;;;13.65;46.13;100384.50;4853622;29;20444;-81
2021/11/01 08:46:10;;;;;;;63.28;30.05;;;;;;;15.80;41.35;100374.72;4891705;29;20483;-81
2021/11/01 09:05:01;;;;;;;88.70;36.55;;;;;;;15.30;42.23;100381.69;4881532;29;20052;-84
2021/11/01 09:25:48;;;;;;;61.55;30.65;;;;;;;17.16;39.39;100361.69;4928393;28;20139;-77
2021/11/01 09:29:07;;;;;;;66.15;30.90;;;;;;;16.50;39.88;100366.78;4977796;28;20043;-81
2021/11/01 09:36:49;;;;;;;61.42;30.27;;;;;;;16.89;39.45;100366.75;4959488;28;20173;-79
2021/11/01 09:41:46;;;;;;;80.43;35.58;;;;;;;16.98;39.25;100355.25;4960577;28;20042;-82
2021/11/01 09:44:16;;;;;;;69.43;33.20;;;;;;;17.09;39.15;100356.91;4927196;28;20109;-81
2021/11/01 09:46:43;;;;;;;64.70;30.88;;;;;;;17.26;38.53;100363.34;4959544;28;20043;-82
2021/11/01 09:49:15;;;;;;;75.93;38.47;;;;;;;16.41;39.72;100362.25;4964367;28;20068;-78
2021/11/01 09:51:47;;;;;;;72.72;36.75;;;;;;;16.41;40.51;100357.78;4975422;28;20061;-78
2021/11/01 09:54:20;;;;;;;110.28;49.55;;;;;;;16.45;40.37;100359.19;4959863;28;20069;-79
2021/11/01 09:57:03;;;;;;;73.03;34.17;;;;;;;16.56;40.58;100355.53;4928703;28;20077;-79
2021/11/01 09:59:35;;;;;;;84.28;39.38;;;;;;;16.10;40.86;100344.53;4944671;28;20045;-84
2021/11/01 10:02:02;;;;;;;68.35;32.00;;;;;;;16.20;41.17;100347.22;4981147;28;20061;-78
2021/11/01 10:04:30;;;;;;;67.35;31.98;;;;;;;16.06;41.07;100350.28;4975486;28;20070;-76
2021/11/01 10:07:31;;;;;;;77.20;33.63;;;;;;;16.12;41.43;100345.22;4966408;28;20433;-80
2021/11/01 10:10:08;;;;;;;67.65;31.80;;;;;;;16.06;41.63;100348.44;4976714;28;20034;-77
2021/11/01 10:12:35;;;;;;;;;;;;;;;16.57;40.93;100345.69;4975430;28;20038;-82
2021/11/01 10:18:04;;;;;;;88.60;37.83;;;;;;;16.12;41.80;100347.88;4970760;28;20070;-77
2021/11/01 10:20:33;;;;;;;70.88;32.38;;;;;;;16.88;40.74;100348.19;4977649;28;20047;-79
2021/11/01 10:22:59;;;;;;;89.30;34.42;;;;;;;16.65;40.43;100338.66;4973537;28;20769;-81
2021/11/01 10:25:35;;;;;;;101.72;36.60;;;;;;;16.18;41.26;100331.31;4962650;28;20042;-77
2021/11/01 10:28:02;;;;;;;103.15;37.60;;;;;;;15.80;42.16;100340.91;4961741;28;20035;-77
2021/11/01 10:30:32;;;;;;;88.53;34.90;;;;;;;15.30;43.13;100330.19;4975787;28;20046;-78
2021/11/01 10:33:04;;;;;;;86.47;34.40;;;;;;;15.36;43.42;100330.53;4966987;28;20527;-80
2021/11/01 10:35:32;;;;;;;85.05;37.00;;;;;;;15.37;43.24;100334.84;4976957;28;20121;-80
2021/11/01 10:38:39;;;;;;;90.97;37.92;;;;;;;14.93;44.78;100334.19;4977190;28;20042;-79
2021/11/01 11:14:41;;;;;;;93.88;31.23;;;;;;;12.67;49.16;100319.34;4897954;29;20048;-81
2021/11/01 11:24:55;;;;;;;84.97;33.00;;;;;;;12.59;49.82;100301.34;4959076;28;20134;-85
2021/11/01 11:47:38;;;;;;;;;;;;;;;12.69;49.67;100283.75;4967716;28;20050;-82
2021/11/01 11:50:19;;;;;;;64.18;28.08;;;;;;;12.57;49.82;100288.22;4973509;28;19940;-78
2021/11/01 11:52:47;;;;;;;59.47;25.73;;;;;;;12.49;50.59;100287.09;4956464;28;20389;-81
2021/11/01 11:55:15;;;;;;;65.97;26.25;;;;;;;12.35;50.45;100281.00;4950156;28;20086;-82
2021/11/01 11:57:42;;;;;;;64.20;27.15;;;;;;;12.28;50.56;100288.56;4914182;28;20039;-80
2021/11/01 12:00:11;;;;;;;56.67;25.67;;;;;;;12.06;51.14;100277.88;4947246;28;20062;-81
2021/11/01 12:02:43;;;;;;;61.63;25.45;;;;;;;12.06;51.54;100278.72;4906995;28;20047;-80
2021/11/01 12:05:23;;;;;;;60.72;26.58;;;;;;;12.04;51.98;100277.16;4928386;29;20171;-82
2021/11/01 12:08:12;;;;;;;59.20;24.98;;;;;;;12.04;52.09;100291.25;4912397;28;20419;-83
2021/11/01 12:18:53;;;;;;;41.92;20.27;;;;;;;11.39;53.05;100273.78;4970653;28;20042;-79
2021/11/01 12:21:20;;;;;;;49.05;21.40;;;;;;;11.38;53.93;100266.84;4955448;28;20046;-80
2021/11/01 12:23:46;;;;;;;47.70;20.08;;;;;;;11.51;53.01;100278.22;4955539;28;20050;-79
2021/11/01 12:26:17;;;;;;;54.65;21.23;;;;;;;11.51;53.41;100272.09;4956385;28;20129;-80
2021/11/01 12:28:50;;;;;;;52.97;20.55;;;;;;;11.38;53.73;100267.66;4972193;28;20050;-81
2021/11/01 12:31:19;;;;;;;55.30;25.35;;;;;;;11.38;53.74;100266.84;4941313;28;20070;-77
2021/11/01 12:34:00;;;;;;;54.40;25.52;;;;;;;11.27;54.41;100270.22;4945392;28;20110;-77
2021/11/01 12:36:38;;;;;;;47.00;22.13;;;;;;;10.99;54.66;100274.78;4938684;28;20047;-83
2021/11/01 12:57:51;;;;;;;58.80;26.27;;;;;;;10.12;58.36;100277.03;4899577;29;20055;-80
2021/11/01 13:00:17;;;;;;;59.78;25.27;;;;;;;10.09;58.26;100267.53;4879702;29;20538;-83
2021/11/01 13:02:46;;;;;;;70.00;28.25;;;;;;;9.98;58.77;100262.97;4865046;29;20052;-81
2021/11/01 13:05:20;;;;;;;61.55;25.17;;;;;;;9.94;59.09;100264.09;4913218;29;20052;-81
2021/11/01 13:18:43;;;;;;;72.13;27.55;;;;;;;9.90;59.40;100265.25;4907616;28;20437;-84
2021/11/01 13:21:19;;;;;;;77.05;28.52;;;;;;;9.88;59.39;100265.34;4959768;28;20054;-82
2021/11/01 13:23:51;;;;;;;69.00;29.63;;;;;;;9.88;59.33;100269.75;4928590;28;20042;-79
2021/11/01 13:26:34;;;;;;;74.68;28.65;;;;;;;9.80;59.86;100267.63;4944294;28;20046;-85
2021/11/01 13:29:19;;;;;;;80.20;27.52;;;;;;;9.68;60.11;100271.91;4929245;28;20488;-83
2021/11/01 13:37:38;;;;;;;89.00;29.88;;;;;;;9.47;61.05;100276.75;4966129;28;20046;-82
2021/11/01 13:40:09;;;;;;;71.63;27.92;;;;;;;9.38;61.15;100279.97;4960645;28;20042;-83
2021/11/01 13:42:37;;;;;;;75.88;32.05;;;;;;;9.27;62.16;100285.06;4976847;28;20046;-81
2021/11/01 13:45:12;;;;;;;78.20;32.40;;;;;;;9.21;62.64;100273.09;4955614;28;20063;-78
2021/11/01 13:47:43;;;;;;;83.18;34.15;;;;;;;9.15;63.00;100271.69;4924977;28;20394;-81
2021/11/01 13:50:09;;;;;;;94.65;33.55;;;;;;;9.09;63.31;100272.06;4946378;29;20126;-82
2021/11/01 13:57:42;;;;;;;102.95;39.67;;;;;;;8.87;63.72;100268.09;4938751;29;20054;-81
2021/11/01 14:03:27;;;;;;;85.80;37.65;;;;;;;8.60;64.55;100269.72;4913803;29;20095;-80
2021/11/01 14:16:54;;;;;;;103.22;41.08;;;;;;;8.38;66.01;100260.44;4898104;29;20050;-81
2021/11/01 14:32:57;;;;;;;75.18;30.55;;;;;;;7.52;67.45;100264.34;4912836;29;20076;-82
2021/11/01 15:15:21;;;;;;;125.40;44.28;;;;;;;6.51;71.30;100268.75;4868588;29;20108;-79
2021/11/01 15:20:27;;;;;;;92.82;35.95;;;;;;;6.30;70.56;100275.94;4868400;29;20041;-81
2021/11/01 15:23:04;;;;;;;92.90;37.30;;;;;;;6.16;71.13;100274.00;4863818;29;20582;-82
2021/11/01 15:25:58;;;;;;;97.25;38.55;;;;;;;6.13;70.89;100269.75;4863235;29;20775;-81
2021/11/01 15:34:33;;;;;;;119.47;47.08;;;;;;;6.02;72.27;100258.06;4914861;29;20048;-80
2021/11/01 16:20:08;;;;;;;174.02;71.88;;;;;;;5.39;73.63;100277.63;4943860;28;20497;-83
2021/11/01 16:22:35;;;;;;;182.10;79.00;;;;;;;5.38;74.89;100273.28;4927837;28;20060;-82
2021/11/01 16:25:02;;;;;;;151.25;64.60;;;;;;;5.41;74.99;100273.13;4962903;28;20055;-80
2021/11/01 16:27:29;;;;;;;159.10;68.93;;;;;;;5.47;75.05;100267.59;4940685;28;20140;-79
2021/11/01 16:30:07;;;;;;;171.73;68.47;;;;;;;5.55;74.69;100270.72;4953687;28;20038;-83
2021/11/01 16:32:42;;;;;;;176.82;73.13;;;;;;;5.61;73.54;100270.44;4968908;28;20045;-81
2021/11/01 16:35:08;;;;;;;144.23;63.47;;;;;;;5.57;74.68;100265.41;4940939;28;20043;-79
2021/11/01 16:37:49;;;;;;;202.73;86.32;;;;;;;5.55;75.25;100272.50;4964645;28;20484;-79
2021/11/01 16:40:15;;;;;;;177.80;70.65;;;;;;;5.50;75.58;100270.09;4969791;28;20527;-78
2021/11/01 16:42:43;;;;;;;179.73;74.47;;;;;;;5.51;75.35;100267.41;4976134;28;20039;-81
2021/11/01 16:45:33;;;;;;;150.70;62.20;;;;;;;5.50;75.42;100262.22;4953532;28;21750;-82
2021/11/01 16:48:00;;;;;;;145.02;58.55;;;;;;;5.55;75.49;100273.34;4967208;28;20748;-81
2021/11/01 16:50:26;;;;;;;173.82;70.10;;;;;;;5.55;75.77;100270.72;4972073;28;20444;-76
2021/11/01 16:52:52;;;;;;;189.30;84.22;;;;;;;5.49;75.78;100271.00;4972003;28;20042;-78
2021/11/01 16:55:25;;;;;;;155.82;70.47;;;;;;;5.47;75.83;100264.97;4971511;28;20043;-77
2021/11/01 16:58:03;;;;;;;157.70;64.55;;;;;;;5.44;76.36;100267.75;4956080;28;20097;-77
2021/11/01 17:06:02;;;;;;;141.98;57.35;;;;;;;5.47;76.66;100267.59;4972951;28;20047;-74
2021/11/01 17:22:22;;;;;;;144.13;59.40;;;;;;;5.40;76.63;100268.81;4954547;29;20074;-81
2021/11/01 17:24:59;;;;;;;145.00;57.17;;;;;;;5.32;77.02;100270.03;4934980;28;20063;-80
2021/11/01 18:39:28;;;;;;;125.28;50.92;;;;;;;4.17;75.92;100267.97;4959472;28;20050;-82
2021/11/01 18:42:10;;;;;;;129.98;53.40;;;;;;;4.12;76.77;100275.19;4951652;28;20089;-82
2021/11/01 18:53:04;;;;;;;133.70;54.33;;;;;;;3.70;77.33;100277.69;4963311;28;20145;-81
2021/11/01 18:55:32;;;;;;;154.85;59.38;;;;;;;3.69;76.91;100280.38;4949408;28;20046;-83
2021/11/01 18:58:01;;;;;;;146.73;57.92;;;;;;;3.69;77.78;100280.38;4932699;28;20547;-81
2021/11/01 19:00:28;;;;;;;146.30;60.03;;;;;;;3.65;78.02;100279.63;4936356;28;20082;-82
2021/11/01 19:02:57;;;;;;;334.95;136.32;;;;;;;3.69;77.76;100289.06;4932440;28;20038;-81
2021/11/01 20:06:02;;;;;;;156.82;60.88;;;;;;;2.87;80.33;100312.94;4914870;29;20551;-84
2021/11/01 20:10:01;;;;;;;130.27;56.08;;;;;;;2.85;79.36;100308.69;4838525;29;20080;-83
2021/11/01 21:26:22;;;;;;;174.65;65.88;;;;;;;2.28;79.39;100334.94;4979171;28;20050;-77
2021/11/01 21:28:52;;;;;;;170.55;67.05;;;;;;;2.31;79.68;100341.81;4977365;28;20042;-79
2021/11/01 21:31:19;;;;;;;165.75;65.90;;;;;;;2.39;80.52;100338.06;4967601;28;20053;-80
2021/11/01 21:33:47;;;;;;;160.95;66.80;;;;;;;2.32;79.70;100326.09;4968178;28;20053;-84
2021/11/01 21:36:23;;;;;;;162.73;64.32;;;;;;;2.38;79.83;100332.88;4965924;28;20073;-83
2021/11/01 21:38:51;;;;;;;167.32;65.78;;;;;;;2.41;79.60;100328.41;4941946;28;20115;-83
2021/11/01 21:41:17;;;;;;;160.95;66.45;;;;;;;2.39;78.31;100321.53;4914899;28;20041;-80
2021/11/01 21:43:43;;;;;;;150.68;65.45;;;;;;;2.36;77.09;100329.47;4943814;28;20042;-79
2021/11/01 21:46:09;;;;;;;160.23;63.85;;;;;;;2.23;75.86;100327.25;4959142;28;20046;-81
2021/11/01 21:48:35;;;;;;;162.18;64.80;;;;;;;2.23;77.26;100324.66;4946898;28;20042;-83
2021/11/01 21:51:02;;;;;;;163.37;65.83;;;;;;;2.21;76.61;100323.84;4953445;28;20053;-80
2021/11/01 21:53:32;;;;;;;153.13;62.10;;;;;;;2.17;76.85;100316.13;4982166;28;20448;-80
2021/11/01 21:55:58;;;;;;;152.85;65.13;;;;;;;2.17;77.21;100317.00;4947825;28;20038;-82
2021/11/01 22:17:26;;;;;;;155.25;62.03;;;;;;;1.88;77.02;100316.19;4979192;28;20077;-82
2021/11/01 22:57:04;;;;;;;132.13;54.75;;;;;;;1.31;76.30;100299.63;4917061;29;20050;-79
2021/11/01 22:59:29;;;;;;;136.27;58.33;;;;;;;1.32;76.57;100306.53;4917531;29;20516;-80
2021/11/01 23:01:56;;;;;;;145.00;58.22;;;;;;;1.26;76.31;100301.50;4917356;29;20060;-81
2021/11/01 23:04:29;;;;;;;144.80;58.92;;;;;;;1.18;76.43;100290.44;4933362;29;20039;-78
2021/11/01 23:31:39;;;;;;;131.68;57.55;;;;;;;0.64;76.10;100318.78;4969583;28;20135;-76
2021/11/01 23:34:10;;;;;;;144.13;57.47;;;;;;;0.56;76.34;100315.50;4983387;28;20050;-78
2021/11/01 23:36:37;;;;;;;132.15;54.28;;;;;;;0.55;75.82;100312.06;4991864;28;20435;-79
2021/11/01 23:39:07;;;;;;;140.45;58.08;;;;;;;0.55;76.38;100309.47;4991567;28;20430;-76
2021/11/01 23:41:36;;;;;;;135.68;56.42;;;;;;;0.58;75.83;100313.72;4982446;28;20050;-76
2021/11/01 23:44:03;;;;;;;137.18;55.25;;;;;;;0.59;76.54;100310.22;4978428;28;20045;-77
2021/11/01 23:46:29;;;;;;;134.00;55.80;;;;;;;0.59;76.44;100311.06;4991677;28;20144;-75
2021/11/01 23:48:54;;;;;;;127.22;54.92;;;;;;;0.57;76.56;100306.81;4992258;28;20094;-78
2021/11/01 23:51:30;;;;;;;143.30;55.60;;;;;;;0.49;76.72;100307.00;4990938;28;20046;-75
2021/11/01 23:56:25;;;;;;;122.47;53.60;;;;;;;0.45;76.79;100306.22;4972362;28;20424;-78
2021/11/01 23:58:51;;;;;;;131.40;53.25;;;;;;;0.54;77.13;100299.09;4975765;28;20046;-79
